Hathaway, MT (59333)

6:27 PM MDT on August 26, 2016 (GMT -0600)
Graveyard Creek Road | | Change Station

Elev 3028 ft 46.18 °N, 106.07 °W | Updated 7 minutes ago

Mostly Cloudy
Mostly Cloudy
73.4 °F
Feels Like 77 °F
N
6.3
Wind Variable Wind from West

Today
High -- | Low -- °F
--% Chance of Precip.
Yesterday
High -- | Low -- °F
Precip. -- in
Pressure 29.91 in
Visibility 10.0 miles
Clouds Mostly Cloudy 9500 ft
Heat Index 77 °F
Dew Point 40 °F
Humidity 30%
Rainfall 0.00 in
Snow Depth Not available.
6:18 AM 7:53 PM
Waning Crescent, 30% visible
METAR KMLS 262353Z AUTO 32010KT 10SM BKN095 24/02 A2995 RMK AO2 SLP129 T02440017 10261 20222 56008
Pressure 29.91 in
Visibility 10.0 miles
Clouds Mostly Cloudy 9500 ft
Heat Index 77 °F
Dew Point 40 °F
Humidity 30%
Rainfall 0.00 in
Snow Depth Not available.
6:18 AM 7:53 PM
Waning Crescent, 30% visible
METAR KMLS 262353Z AUTO 32010KT 10SM BKN095 24/02 A2995 RMK AO2 SLP129 T02440017 10261 20222 56008

10-Day Weather Forecast

Almanac

Astronomy

Aug. 26, 2016 Rise Set
Actual Time
Civil Twilight
Nautical Twilight
Astronomical Twilight
Moon
Length of Visible Light
Length of Day
Tomorrow will be .
, % of the Moon is Illuminated

Today's Extremes

State Highs State Lows

Community

WunderPhotos

Upload Photos

1,935,257 photos uploaded!

WunderBlog® & News

Nearby

Air Quality

  Air Quality AQ Index Pollutant
Not available.

Snow Depth

Station Depth Elevation

Earthquake Activity

City Distance Mag. Time & Date
Minimum magnitude displayed is 2.5.

Coastal Water Temperatures

Place Temperature

Stations

Nearby Weather Stations

Station Location Temp. Windchill Dew Point Humidity Wind Precip. Elev Updated Type
                   

Watches & Warnings

There are currently no watches in effect.